sensor_id;sensor_type;location;lat;lon;timestamp;P1;durP1;ratioP1;P2;durP2;ratioP2
18021;SDS011;9136;48.822;7.966;2023-04-15T04:47:20;23.13;;;21.83;;
18021;SDS011;9136;48.822;7.966;2023-04-15T04:50:08;24.83;;;23.73;;
18021;SDS011;9136;48.822;7.966;2023-04-15T04:52:56;23.60;;;22.60;;
18021;SDS011;9136;48.822;7.966;2023-04-15T04:55:44;21.47;;;20.53;;
18021;SDS011;9136;48.822;7.966;2023-04-15T04:58:32;20.57;;;19.67;;
18021;SDS011;9136;48.822;7.966;2023-04-15T05:01:21;23.20;;;21.73;;
18021;SDS011;9136;48.822;7.966;2023-04-15T05:04:10;24.60;;;23.47;;
18021;SDS011;9136;48.822;7.966;2023-04-15T05:06:58;22.53;;;21.53;;
18021;SDS011;9136;48.822;7.966;2023-04-15T05:09:45;22.57;;;21.37;;
18021;SDS011;9136;48.822;7.966;2023-04-15T05:12:33;20.90;;;20.00;;
18021;SDS011;9136;48.822;7.966;2023-04-15T05:15:22;21.93;;;20.93;;
18021;SDS011;9136;48.822;7.966;2023-04-15T05:18:10;20.00;;;19.10;;
18021;SDS011;9136;48.822;7.966;2023-04-15T05:21:00;24.07;;;22.97;;
18021;SDS011;9136;48.822;7.966;2023-04-15T05:23:49;21.10;;;20.20;;
18021;SDS011;9136;48.822;7.966;2023-04-15T05:26:37;21.03;;;20.13;;
18021;SDS011;9136;48.822;7.966;2023-04-15T05:29:25;22.20;;;21.20;;
18021;SDS011;9136;48.822;7.966;2023-04-15T05:32:12;26.47;;;25.27;;
18021;SDS011;9136;48.822;7.966;2023-04-15T05:35:00;19.43;;;18.57;;
18021;SDS011;9136;48.822;7.966;2023-04-15T05:37:49;21.77;;;20.67;;
18021;SDS011;9136;48.822;7.966;2023-04-15T05:40:37;23.83;;;22.77;;
18021;SDS011;9136;48.822;7.966;2023-04-15T05:43:25;20.90;;;19.90;;
18021;SDS011;9136;48.822;7.966;2023-04-15T05:46:13;20.97;;;19.57;;
18021;SDS011;9136;48.822;7.966;2023-04-15T05:49:01;23.30;;;22.20;;
18021;SDS011;9136;48.822;7.966;2023-04-15T05:51:49;19.47;;;18.60;;
18021;SDS011;9136;48.822;7.966;2023-04-15T05:54:38;21.17;;;20.17;;
18021;SDS011;9136;48.822;7.966;2023-04-15T05:57:26;21.43;;;20.43;;
18021;SDS011;9136;48.822;7.966;2023-04-15T06:00:14;21.00;;;20.07;;
18021;SDS011;9136;48.822;7.966;2023-04-15T06:03:02;20.13;;;19.23;;
18021;SDS011;9136;48.822;7.966;2023-04-15T06:05:51;19.47;;;18.57;;
18021;SDS011;9136;48.822;7.966;2023-04-15T06:08:39;22.47;;;21.47;;
18021;SDS011;9136;48.822;7.966;2023-04-15T06:11:28;19.70;;;18.83;;
18021;SDS011;9136;48.822;7.966;2023-04-15T06:14:16;22.33;;;21.33;;
18021;SDS011;9136;48.822;7.966;2023-04-15T06:17:04;18.97;;;18.10;;
18021;SDS011;9136;48.822;7.966;2023-04-15T06:19:52;16.90;;;16.20;;
18021;SDS011;9136;48.822;7.966;2023-04-15T06:22:40;19.53;;;18.63;;
18021;SDS011;9136;48.822;7.966;2023-04-15T06:25:28;17.73;;;16.63;;
18021;SDS011;9136;48.822;7.966;2023-04-15T06:28:17;19.17;;;17.93;;
18021;SDS011;9136;48.822;7.966;2023-04-15T06:31:05;19.63;;;18.73;;
18021;SDS011;9136;48.822;7.966;2023-04-15T06:33:53;14.77;;;14.17;;
18021;SDS011;9136;48.822;7.966;2023-04-15T06:36:40;18.93;;;18.13;;
18021;SDS011;9136;48.822;7.966;2023-04-15T06:39:28;17.57;;;16.77;;
18021;SDS011;9136;48.822;7.966;2023-04-15T06:42:17;15.70;;;15.00;;
18021;SDS011;9136;48.822;7.966;2023-04-15T06:45:07;18.27;;;17.47;;
18021;SDS011;9136;48.822;7.966;2023-04-15T06:47:55;17.87;;;16.93;;
18021;SDS011;9136;48.822;7.966;2023-04-15T06:50:43;17.10;;;16.37;;
18021;SDS011;9136;48.822;7.966;2023-04-15T06:53:31;16.80;;;16.07;;
18021;SDS011;9136;48.822;7.966;2023-04-15T06:56:20;16.73;;;16.03;;
18021;SDS011;9136;48.822;7.966;2023-04-15T06:59:08;18.80;;;17.90;;
18021;SDS011;9136;48.822;7.966;2023-04-15T07:01:58;19.77;;;17.23;;
18021;SDS011;9136;48.822;7.966;2023-04-15T07:04:45;16.10;;;15.40;;
18021;SDS011;9136;48.822;7.966;2023-04-15T07:07:33;20.23;;;19.33;;
18021;SDS011;9136;48.822;7.966;2023-04-15T07:10:22;15.07;;;14.37;;
18021;SDS011;9136;48.822;7.966;2023-04-15T07:13:10;18.70;;;17.90;;
18021;SDS011;9136;48.822;7.966;2023-04-15T07:15:58;19.57;;;18.67;;
18021;SDS011;9136;48.822;7.966;2023-04-15T07:18:47;17.27;;;16.40;;
18021;SDS011;9136;48.822;7.966;2023-04-15T07:21:35;15.57;;;14.87;;
18021;SDS011;9136;48.822;7.966;2023-04-15T07:24:22;16.90;;;16.10;;
18021;SDS011;9136;48.822;7.966;2023-04-15T07:27:11;18.20;;;17.40;;
18021;SDS011;9136;48.822;7.966;2023-04-15T07:29:59;16.77;;;15.97;;
18021;SDS011;9136;48.822;7.966;2023-04-15T07:32:47;18.87;;;17.97;;
18021;SDS011;9136;48.822;7.966;2023-04-15T07:35:36;19.10;;;18.17;;
18021;SDS011;9136;48.822;7.966;2023-04-15T07:38:24;15.37;;;14.67;;
18021;SDS011;9136;48.822;7.966;2023-04-15T07:41:12;19.20;;;18.37;;
18021;SDS011;9136;48.822;7.966;2023-04-15T07:44:00;18.73;;;17.93;;
18021;SDS011;9136;48.822;7.966;2023-04-15T07:46:49;18.47;;;17.67;;
18021;SDS011;9136;48.822;7.966;2023-04-15T07:49:36;19.23;;;18.17;;
18021;SDS011;9136;48.822;7.966;2023-04-15T07:52:26;16.67;;;15.97;;
18021;SDS011;9136;48.822;7.966;2023-04-15T07:55:13;17.43;;;16.63;;
18021;SDS011;9136;48.822;7.966;2023-04-15T07:58:04;16.57;;;15.77;;
18021;SDS011;9136;48.822;7.966;2023-04-15T08:00:52;18.17;;;17.37;;
18021;SDS011;9136;48.822;7.966;2023-04-15T08:03:41;17.63;;;16.63;;
18021;SDS011;9136;48.822;7.966;2023-04-15T08:06:28;17.93;;;17.13;;
18021;SDS011;9136;48.822;7.966;2023-04-15T08:09:19;18.47;;;17.57;;
18021;SDS011;9136;48.822;7.966;2023-04-15T08:12:08;16.17;;;15.40;;
18021;SDS011;9136;48.822;7.966;2023-04-15T08:14:58;16.43;;;15.73;;
18021;SDS011;9136;48.822;7.966;2023-04-15T08:17:47;16.93;;;16.17;;
18021;SDS011;9136;48.822;7.966;2023-04-15T08:20:34;16.13;;;15.43;;
18021;SDS011;9136;48.822;7.966;2023-04-15T08:23:23;15.93;;;15.20;;
18021;SDS011;9136;48.822;7.966;2023-04-15T08:26:15;17.73;;;16.83;;
18021;SDS011;9136;48.822;7.966;2023-04-15T08:29:05;17.50;;;16.70;;
18021;SDS011;9136;48.822;7.966;2023-04-15T08:32:12;16.30;;;15.60;;
18021;SDS011;9136;48.822;7.966;2023-04-15T08:35:01;20.43;;;19.53;;
18021;SDS011;9136;48.822;7.966;2023-04-15T08:37:49;16.57;;;15.83;;
18021;SDS011;9136;48.822;7.966;2023-04-15T08:40:39;18.57;;;17.77;;
18021;SDS011;9136;48.822;7.966;2023-04-15T08:43:32;15.27;;;14.57;;
18021;SDS011;9136;48.822;7.966;2023-04-15T08:46:23;17.10;;;16.37;;
18021;SDS011;9136;48.822;7.966;2023-04-15T08:49:11;16.10;;;15.40;;
18021;SDS011;9136;48.822;7.966;2023-04-15T08:52:01;15.57;;;14.87;;
18021;SDS011;9136;48.822;7.966;2023-04-15T08:54:50;16.13;;;15.20;;
18021;SDS011;9136;48.822;7.966;2023-04-15T08:57:39;18.53;;;17.70;;
18021;SDS011;9136;48.822;7.966;2023-04-15T09:00:29;14.80;;;14.13;;
18021;SDS011;9136;48.822;7.966;2023-04-15T09:03:19;15.70;;;15.00;;
18021;SDS011;9136;48.822;7.966;2023-04-15T09:06:08;17.00;;;15.93;;
18021;SDS011;9136;48.822;7.966;2023-04-15T09:08:56;15.87;;;15.17;;
18021;SDS011;9136;48.822;7.966;2023-04-15T09:11:44;14.20;;;13.50;;
18021;SDS011;9136;48.822;7.966;2023-04-15T09:14:32;15.23;;;14.60;;
18021;SDS011;9136;48.822;7.966;2023-04-15T09:17:21;14.87;;;14.23;;
18021;SDS011;9136;48.822;7.966;2023-04-15T09:20:13;14.83;;;14.23;;
18021;SDS011;9136;48.822;7.966;2023-04-15T09:23:10;15.47;;;14.77;;
18021;SDS011;9136;48.822;7.966;2023-04-15T09:25:59;15.77;;;15.07;;
18021;SDS011;9136;48.822;7.966;2023-04-15T09:28:47;16.27;;;15.57;;
18021;SDS011;9136;48.822;7.966;2023-04-15T09:31:36;13.03;;;12.43;;
18021;SDS011;9136;48.822;7.966;2023-04-15T09:34:26;15.17;;;14.47;;
18021;SDS011;9136;48.822;7.966;2023-04-15T09:37:33;14.10;;;13.50;;
18021;SDS011;9136;48.822;7.966;2023-04-15T09:40:32;13.83;;;13.23;;
18021;SDS011;9136;48.822;7.966;2023-04-15T09:43:21;13.57;;;12.97;;
18021;SDS011;9136;48.822;7.966;2023-04-15T09:46:09;15.27;;;14.57;;
18021;SDS011;9136;48.822;7.966;2023-04-15T09:49:06;13.70;;;13.10;;
18021;SDS011;9136;48.822;7.966;2023-04-15T09:51:58;14.30;;;13.60;;
18021;SDS011;9136;48.822;7.966;2023-04-15T09:54:47;16.20;;;15.47;;
18021;SDS011;9136;48.822;7.966;2023-04-15T09:57:35;13.33;;;12.73;;
18021;SDS011;9136;48.822;7.966;2023-04-15T10:00:23;14.40;;;13.77;;
18021;SDS011;9136;48.822;7.966;2023-04-15T10:03:11;13.97;;;13.20;;
18021;SDS011;9136;48.822;7.966;2023-04-15T10:06:01;15.90;;;15.17;;
18021;SDS011;9136;48.822;7.966;2023-04-15T10:08:52;12.97;;;12.47;;
18021;SDS011;9136;48.822;7.966;2023-04-15T10:11:40;13.93;;;13.33;;
18021;SDS011;9136;48.822;7.966;2023-04-15T10:14:30;14.17;;;13.47;;
18021;SDS011;9136;48.822;7.966;2023-04-15T10:17:21;14.87;;;14.27;;
18021;SDS011;9136;48.822;7.966;2023-04-15T10:20:10;13.70;;;13.10;;
18021;SDS011;9136;48.822;7.966;2023-04-15T10:22:59;13.77;;;13.17;;
18021;SDS011;9136;48.822;7.966;2023-04-15T10:25:49;14.53;;;13.83;;
18021;SDS011;9136;48.822;7.966;2023-04-15T10:28:39;14.43;;;13.83;;
18021;SDS011;9136;48.822;7.966;2023-04-15T10:31:27;14.30;;;13.70;;
18021;SDS011;9136;48.822;7.966;2023-04-15T10:34:17;13.10;;;12.53;;
18021;SDS011;9136;48.822;7.966;2023-04-15T10:37:07;13.43;;;12.83;;
18021;SDS011;9136;48.822;7.966;2023-04-15T10:39:56;14.10;;;13.50;;
18021;SDS011;9136;48.822;7.966;2023-04-15T10:42:45;14.93;;;13.97;;
18021;SDS011;9136;48.822;7.966;2023-04-15T10:45:35;13.97;;;12.97;;
18021;SDS011;9136;48.822;7.966;2023-04-15T10:48:23;13.17;;;12.57;;
18021;SDS011;9136;48.822;7.966;2023-04-15T10:51:12;13.40;;;12.80;;
18021;SDS011;9136;48.822;7.966;2023-04-15T10:54:00;13.90;;;13.30;;
18021;SDS011;9136;48.822;7.966;2023-04-15T10:56:50;13.20;;;12.60;;
18021;SDS011;9136;48.822;7.966;2023-04-15T11:00:01;12.53;;;12.03;;
18021;SDS011;9136;48.822;7.966;2023-04-15T11:02:56;14.70;;;14.03;;
18021;SDS011;9136;48.822;7.966;2023-04-15T11:05:49;14.73;;;14.03;;
18021;SDS011;9136;48.822;7.966;2023-04-15T11:08:54;14.70;;;14.10;;
18021;SDS011;9136;48.822;7.966;2023-04-15T11:12:03;12.70;;;12.20;;
18021;SDS011;9136;48.822;7.966;2023-04-15T11:14:53;13.00;;;12.47;;
18021;SDS011;9136;48.822;7.966;2023-04-15T11:17:45;13.00;;;12.45;;
18021;SDS011;9136;48.822;7.966;2023-04-15T11:20:32;13.77;;;13.07;;
18021;SDS011;9136;48.822;7.966;2023-04-15T11:23:26;13.27;;;12.68;;
18021;SDS011;9136;48.822;7.966;2023-04-15T11:26:16;14.15;;;13.50;;
18021;SDS011;9136;48.822;7.966;2023-04-15T11:29:04;13.80;;;13.20;;
18021;SDS011;9136;48.822;7.966;2023-04-15T11:31:52;13.70;;;12.98;;
18021;SDS011;9136;48.822;7.966;2023-04-15T11:34:44;13.40;;;12.80;;
18021;SDS011;9136;48.822;7.966;2023-04-15T11:37:33;12.15;;;11.65;;
18021;SDS011;9136;48.822;7.966;2023-04-15T11:40:22;12.77;;;12.18;;
18021;SDS011;9136;48.822;7.966;2023-04-15T11:43:13;12.93;;;12.35;;
18021;SDS011;9136;48.822;7.966;2023-04-15T11:46:02;13.88;;;13.18;;
18021;SDS011;9136;48.822;7.966;2023-04-15T11:48:50;12.65;;;12.15;;
18021;SDS011;9136;48.822;7.966;2023-04-15T11:51:39;14.60;;;13.75;;
18021;SDS011;9136;48.822;7.966;2023-04-15T11:54:30;14.77;;;13.73;;
18021;SDS011;9136;48.822;7.966;2023-04-15T11:57:18;14.02;;;13.32;;
18021;SDS011;9136;48.822;7.966;2023-04-15T12:00:08;12.57;;;11.98;;
18021;SDS011;9136;48.822;7.966;2023-04-15T12:03:10;11.98;;;11.48;;
18021;SDS011;9136;48.822;7.966;2023-04-15T12:06:02;13.43;;;12.77;;
18021;SDS011;9136;48.822;7.966;2023-04-15T12:09:10;14.32;;;13.65;;
18021;SDS011;9136;48.822;7.966;2023-04-15T12:11:58;13.93;;;13.32;;
18021;SDS011;9136;48.822;7.966;2023-04-15T12:14:46;13.50;;;12.80;;
18021;SDS011;9136;48.822;7.966;2023-04-15T12:17:34;14.02;;;13.43;;
18021;SDS011;9136;48.822;7.966;2023-04-15T12:20:24;12.88;;;12.38;;
18021;SDS011;9136;48.822;7.966;2023-04-15T12:23:12;13.77;;;13.07;;
18021;SDS011;9136;48.822;7.966;2023-04-15T12:26:05;13.73;;;13.07;;
18021;SDS011;9136;48.822;7.966;2023-04-15T12:28:53;13.00;;;12.13;;
18021;SDS011;9136;48.822;7.966;2023-04-15T12:31:45;12.18;;;11.68;;
18021;SDS011;9136;48.822;7.966;2023-04-15T12:34:36;14.07;;;13.30;;
18021;SDS011;9136;48.822;7.966;2023-04-15T12:37:25;13.48;;;12.75;;
18021;SDS011;9136;48.822;7.966;2023-04-15T12:40:12;11.93;;;11.43;;
18021;SDS011;9136;48.822;7.966;2023-04-15T12:43:04;13.18;;;12.60;;
18021;SDS011;9136;48.822;7.966;2023-04-15T12:45:51;14.07;;;13.48;;
18021;SDS011;9136;48.822;7.966;2023-04-15T12:48:39;12.30;;;11.73;;
18021;SDS011;9136;48.822;7.966;2023-04-15T12:51:27;13.03;;;12.43;;
18021;SDS011;9136;48.822;7.966;2023-04-15T12:54:18;13.95;;;13.25;;
18021;SDS011;9136;48.822;7.966;2023-04-15T12:57:07;12.57;;;12.02;;
18021;SDS011;9136;48.822;7.966;2023-04-15T12:59:56;13.07;;;12.48;;
18021;SDS011;9136;48.822;7.966;2023-04-15T13:02:44;12.38;;;11.88;;
18021;SDS011;9136;48.822;7.966;2023-04-15T13:05:32;13.70;;;13.07;;
18021;SDS011;9136;48.822;7.966;2023-04-15T13:08:22;13.88;;;13.18;;
18021;SDS011;9136;48.822;7.966;2023-04-15T13:11:10;12.57;;;11.98;;
18021;SDS011;9136;48.822;7.966;2023-04-15T13:13:59;12.75;;;12.25;;
18021;SDS011;9136;48.822;7.966;2023-04-15T13:16:49;13.13;;;12.52;;
18021;SDS011;9136;48.822;7.966;2023-04-15T13:19:37;13.35;;;12.75;;
18021;SDS011;9136;48.822;7.966;2023-04-15T13:22:25;13.68;;;12.98;;
18021;SDS011;9136;48.822;7.966;2023-04-15T13:25:13;13.50;;;12.80;;
18021;SDS011;9136;48.822;7.966;2023-04-15T13:28:01;13.50;;;12.38;;
18021;SDS011;9136;48.822;7.966;2023-04-15T13:30:49;13.68;;;13.00;;
18021;SDS011;9136;48.822;7.966;2023-04-15T13:33:38;12.93;;;12.40;;
18021;SDS011;9136;48.822;7.966;2023-04-15T13:36:26;13.80;;;13.10;;
18021;SDS011;9136;48.822;7.966;2023-04-15T13:39:14;14.13;;;13.53;;
18021;SDS011;9136;48.822;7.966;2023-04-15T13:42:01;13.00;;;12.37;;
18021;SDS011;9136;48.822;7.966;2023-04-15T13:44:50;12.68;;;12.18;;
18021;SDS011;9136;48.822;7.966;2023-04-15T13:47:39;13.10;;;12.50;;
18021;SDS011;9136;48.822;7.966;2023-04-15T13:50:28;13.75;;;13.15;;
18021;SDS011;9136;48.822;7.966;2023-04-15T13:53:16;13.30;;;12.70;;
18021;SDS011;9136;48.822;7.966;2023-04-15T13:56:04;12.73;;;12.13;;
18021;SDS011;9136;48.822;7.966;2023-04-15T13:58:52;13.23;;;12.63;;
18021;SDS011;9136;48.822;7.966;2023-04-15T14:01:43;13.13;;;12.52;;
18021;SDS011;9136;48.822;7.966;2023-04-15T14:04:31;12.93;;;12.32;;
18021;SDS011;9136;48.822;7.966;2023-04-15T14:07:20;13.18;;;12.57;;
18021;SDS011;9136;48.822;7.966;2023-04-15T14:10:09;11.38;;;10.88;;
18021;SDS011;9136;48.822;7.966;2023-04-15T14:12:58;14.40;;;13.57;;
18021;SDS011;9136;48.822;7.966;2023-04-15T14:15:46;14.30;;;13.38;;
18021;SDS011;9136;48.822;7.966;2023-04-15T14:18:34;13.73;;;13.02;;
18021;SDS011;9136;48.822;7.966;2023-04-15T14:21:23;13.75;;;13.15;;
18021;SDS011;9136;48.822;7.966;2023-04-15T14:24:12;15.25;;;14.50;;
18021;SDS011;9136;48.822;7.966;2023-04-15T14:27:03;13.17;;;12.57;;
18021;SDS011;9136;48.822;7.966;2023-04-15T14:29:53;14.53;;;13.67;;
18021;SDS011;9136;48.822;7.966;2023-04-15T14:32:42;13.27;;;12.67;;
18021;SDS011;9136;48.822;7.966;2023-04-15T14:35:30;14.00;;;13.40;;
18021;SDS011;9136;48.822;7.966;2023-04-15T14:38:18;13.97;;;13.37;;
18021;SDS011;9136;48.822;7.966;2023-04-15T14:41:09;14.83;;;13.43;;
18021;SDS011;9136;48.822;7.966;2023-04-15T14:43:57;13.53;;;12.93;;
18021;SDS011;9136;48.822;7.966;2023-04-15T14:46:45;13.53;;;12.73;;
18021;SDS011;9136;48.822;7.966;2023-04-15T14:49:33;12.70;;;12.10;;
18021;SDS011;9136;48.822;7.966;2023-04-15T14:52:20;14.23;;;13.63;;
18021;SDS011;9136;48.822;7.966;2023-04-15T14:55:09;12.30;;;11.70;;
18021;SDS011;9136;48.822;7.966;2023-04-15T14:57:59;12.03;;;11.53;;
18021;SDS011;9136;48.822;7.966;2023-04-15T15:00:47;13.13;;;12.53;;
18021;SDS011;9136;48.822;7.966;2023-04-15T15:03:35;13.37;;;12.77;;
18021;SDS011;9136;48.822;7.966;2023-04-15T15:06:23;13.87;;;12.97;;
18021;SDS011;9136;48.822;7.966;2023-04-15T15:09:11;13.10;;;12.17;;
18021;SDS011;9136;48.822;7.966;2023-04-15T15:11:59;12.83;;;12.03;;
18021;SDS011;9136;48.822;7.966;2023-04-15T15:14:48;13.00;;;12.40;;
18021;SDS011;9136;48.822;7.966;2023-04-15T15:17:36;14.13;;;13.53;;
18021;SDS011;9136;48.822;7.966;2023-04-15T15:20:24;14.73;;;14.13;;
18021;SDS011;9136;48.822;7.966;2023-04-15T15:23:11;14.43;;;13.63;;
18021;SDS011;9136;48.822;7.966;2023-04-15T15:26:00;11.93;;;11.40;;
18021;SDS011;9136;48.822;7.966;2023-04-15T15:28:48;13.77;;;13.17;;
18021;SDS011;9136;48.822;7.966;2023-04-15T15:31:38;13.77;;;13.17;;
18021;SDS011;9136;48.822;7.966;2023-04-15T15:34:26;14.53;;;13.63;;
18021;SDS011;9136;48.822;7.966;2023-04-15T15:37:13;12.50;;;12.00;;
18021;SDS011;9136;48.822;7.966;2023-04-15T15:40:02;14.67;;;13.97;;
18021;SDS011;9136;48.822;7.966;2023-04-15T15:42:50;14.33;;;13.70;;
18021;SDS011;9136;48.822;7.966;2023-04-15T15:45:38;13.40;;;12.80;;
18021;SDS011;9136;48.822;7.966;2023-04-15T15:48:28;14.37;;;13.67;;
18021;SDS011;9136;48.822;7.966;2023-04-15T15:51:17;14.53;;;13.83;;
18021;SDS011;9136;48.822;7.966;2023-04-15T15:54:05;14.50;;;13.83;;
18021;SDS011;9136;48.822;7.966;2023-04-15T15:56:53;14.10;;;13.50;;
18021;SDS011;9136;48.822;7.966;2023-04-15T15:59:42;12.37;;;11.83;;
18021;SDS011;9136;48.822;7.966;2023-04-15T16:02:30;15.03;;;14.33;;
18021;SDS011;9136;48.822;7.966;2023-04-15T16:05:19;12.83;;;12.23;;
18021;SDS011;9136;48.822;7.966;2023-04-15T16:08:07;13.77;;;13.07;;
18021;SDS011;9136;48.822;7.966;2023-04-15T16:10:55;13.73;;;13.13;;
18021;SDS011;9136;48.822;7.966;2023-04-15T16:13:43;12.87;;;12.27;;
18021;SDS011;9136;48.822;7.966;2023-04-15T16:16:31;12.17;;;11.67;;
18021;SDS011;9136;48.822;7.966;2023-04-15T16:19:19;14.30;;;13.70;;
18021;SDS011;9136;48.822;7.966;2023-04-15T16:22:09;13.73;;;12.80;;
18021;SDS011;9136;48.822;7.966;2023-04-15T16:24:57;13.87;;;13.27;;
18021;SDS011;9136;48.822;7.966;2023-04-15T16:27:46;14.00;;;13.40;;
18021;SDS011;9136;48.822;7.966;2023-04-15T16:30:34;14.63;;;14.03;;
18021;SDS011;9136;48.822;7.966;2023-04-15T16:33:23;12.90;;;12.30;;
18021;SDS011;9136;48.822;7.966;2023-04-15T16:36:10;13.00;;;12.40;;
18021;SDS011;9136;48.822;7.966;2023-04-15T16:39:00;15.10;;;14.40;;
18021;SDS011;9136;48.822;7.966;2023-04-15T16:41:47;14.27;;;13.57;;
18021;SDS011;9136;48.822;7.966;2023-04-15T16:44:35;12.60;;;12.10;;
18021;SDS011;9136;48.822;7.966;2023-04-15T16:47:23;13.13;;;12.53;;
18021;SDS011;9136;48.822;7.966;2023-04-15T16:50:11;13.87;;;13.07;;
18021;SDS011;9136;48.822;7.966;2023-04-15T16:52:59;14.23;;;13.63;;
18021;SDS011;9136;48.822;7.966;2023-04-15T16:55:48;15.30;;;14.53;;
18021;SDS011;9136;48.822;7.966;2023-04-15T16:58:36;15.20;;;14.53;;
18021;SDS011;9136;48.822;7.966;2023-04-15T17:01:29;13.73;;;13.13;;
18021;SDS011;9136;48.822;7.966;2023-04-15T17:04:17;14.17;;;13.57;;
18021;SDS011;9136;48.822;7.966;2023-04-15T17:07:05;15.67;;;14.97;;
18021;SDS011;9136;48.822;7.966;2023-04-15T17:09:53;13.80;;;13.20;;
18021;SDS011;9136;48.822;7.966;2023-04-15T17:12:43;13.53;;;12.93;;
18021;SDS011;9136;48.822;7.966;2023-04-15T17:15:31;12.27;;;11.77;;
18021;SDS011;9136;48.822;7.966;2023-04-15T17:18:19;13.93;;;13.27;;
18021;SDS011;9136;48.822;7.966;2023-04-15T17:21:07;14.67;;;14.07;;
18021;SDS011;9136;48.822;7.966;2023-04-15T17:23:54;14.23;;;13.63;;
18021;SDS011;9136;48.822;7.966;2023-04-15T17:26:42;14.53;;;13.83;;
18021;SDS011;9136;48.822;7.966;2023-04-15T17:29:33;14.13;;;13.53;;
18021;SDS011;9136;48.822;7.966;2023-04-15T17:32:21;14.17;;;13.57;;
18021;SDS011;9136;48.822;7.966;2023-04-15T17:35:09;14.17;;;13.57;;
18021;SDS011;9136;48.822;7.966;2023-04-15T17:37:57;14.57;;;13.97;;
18021;SDS011;9136;48.822;7.966;2023-04-15T17:40:44;14.57;;;13.87;;
18021;SDS011;9136;48.822;7.966;2023-04-15T17:43:32;14.83;;;14.23;;
18021;SDS011;9136;48.822;7.966;2023-04-15T17:46:22;16.70;;;15.90;;
18021;SDS011;9136;48.822;7.966;2023-04-15T17:49:09;13.10;;;12.53;;
18021;SDS011;9136;48.822;7.966;2023-04-15T17:51:58;14.87;;;14.27;;
18021;SDS011;9136;48.822;7.966;2023-04-15T17:54:46;14.67;;;14.07;;
18021;SDS011;9136;48.822;7.966;2023-04-15T17:57:34;16.50;;;15.80;;
18021;SDS011;9136;48.822;7.966;2023-04-15T18:00:22;15.13;;;14.47;;
18021;SDS011;9136;48.822;7.966;2023-04-15T18:03:13;15.10;;;14.43;;
18021;SDS011;9136;48.822;7.966;2023-04-15T18:06:01;16.17;;;15.47;;
18021;SDS011;9136;48.822;7.966;2023-04-15T18:08:49;15.53;;;14.83;;
18021;SDS011;9136;48.822;7.966;2023-04-15T18:11:38;15.10;;;14.47;;
18021;SDS011;9136;48.822;7.966;2023-04-15T18:14:28;15.00;;;14.40;;
18021;SDS011;9136;48.822;7.966;2023-04-15T18:17:16;14.33;;;13.73;;
18021;SDS011;9136;48.822;7.966;2023-04-15T18:20:07;17.10;;;16.40;;
18021;SDS011;9136;48.822;7.966;2023-04-15T18:22:55;13.23;;;12.63;;
18021;SDS011;9136;48.822;7.966;2023-04-15T18:25:43;15.80;;;15.10;;
18021;SDS011;9136;48.822;7.966;2023-04-15T18:28:30;14.57;;;13.97;;
18021;SDS011;9136;48.822;7.966;2023-04-15T18:31:18;16.80;;;16.10;;
18021;SDS011;9136;48.822;7.966;2023-04-15T18:34:06;16.00;;;15.30;;
18021;SDS011;9136;48.822;7.966;2023-04-15T18:36:55;15.63;;;14.93;;
18021;SDS011;9136;48.822;7.966;2023-04-15T18:39:44;16.27;;;14.37;;
18021;SDS011;9136;48.822;7.966;2023-04-15T18:42:32;16.07;;;15.37;;
18021;SDS011;9136;48.822;7.966;2023-04-15T18:45:19;16.37;;;15.67;;
18021;SDS011;9136;48.822;7.966;2023-04-15T18:48:07;18.13;;;17.23;;
18021;SDS011;9136;48.822;7.966;2023-04-15T18:50:56;15.53;;;14.83;;
18021;SDS011;9136;48.822;7.966;2023-04-15T18:53:45;17.30;;;16.50;;
18021;SDS011;9136;48.822;7.966;2023-04-15T18:56:33;16.53;;;15.83;;
18021;SDS011;9136;48.822;7.966;2023-04-15T18:59:21;18.03;;;17.23;;
18021;SDS011;9136;48.822;7.966;2023-04-15T19:02:09;16.47;;;15.77;;
18021;SDS011;9136;48.822;7.966;2023-04-15T19:04:56;17.23;;;16.43;;
18021;SDS011;9136;48.822;7.966;2023-04-15T19:07:46;16.80;;;16.07;;
18021;SDS011;9136;48.822;7.966;2023-04-15T19:10:36;16.63;;;15.93;;
18021;SDS011;9136;48.822;7.966;2023-04-15T19:13:24;15.73;;;15.03;;
18021;SDS011;9136;48.822;7.966;2023-04-15T19:16:12;17.70;;;16.90;;
18021;SDS011;9136;48.822;7.966;2023-04-15T19:19:00;17.33;;;16.53;;
18021;SDS011;9136;48.822;7.966;2023-04-15T19:21:48;16.60;;;15.87;;
18021;SDS011;9136;48.822;7.966;2023-04-15T19:24:36;16.03;;;15.33;;
18021;SDS011;9136;48.822;7.966;2023-04-15T19:27:26;18.53;;;17.73;;
18021;SDS011;9136;48.822;7.966;2023-04-15T19:30:14;16.40;;;15.70;;
18021;SDS011;9136;48.822;7.966;2023-04-15T19:33:02;16.60;;;15.37;;
18021;SDS011;9136;48.822;7.966;2023-04-15T19:35:49;17.10;;;16.33;;
18021;SDS011;9136;48.822;7.966;2023-04-15T19:38:37;17.27;;;16.47;;
18021;SDS011;9136;48.822;7.966;2023-04-15T19:41:25;18.53;;;17.73;;
18021;SDS011;9136;48.822;7.966;2023-04-15T19:44:14;18.20;;;17.40;;
18021;SDS011;9136;48.822;7.966;2023-04-15T19:47:02;18.57;;;17.67;;
18021;SDS011;9136;48.822;7.966;2023-04-15T19:49:50;16.17;;;15.47;;
18021;SDS011;9136;48.822;7.966;2023-04-15T19:52:38;17.23;;;16.50;;
18021;SDS011;9136;48.822;7.966;2023-04-15T19:55:26;17.00;;;16.27;;
18021;SDS011;9136;48.822;7.966;2023-04-15T19:58:14;15.47;;;14.67;;
18021;SDS011;9136;48.822;7.966;2023-04-15T20:01:03;16.67;;;15.87;;
18021;SDS011;9136;48.822;7.966;2023-04-15T20:03:51;16.97;;;16.23;;
18021;SDS011;9136;48.822;7.966;2023-04-15T20:06:39;18.23;;;17.43;;
18021;SDS011;9136;48.822;7.966;2023-04-15T20:09:27;17.77;;;16.97;;
18021;SDS011;9136;48.822;7.966;2023-04-15T20:12:14;18.53;;;17.70;;
18021;SDS011;9136;48.822;7.966;2023-04-15T20:15:02;18.03;;;17.17;;
18021;SDS011;9136;48.822;7.966;2023-04-15T20:17:52;15.77;;;15.07;;
18021;SDS011;9136;48.822;7.966;2023-04-15T20:20:40;16.73;;;15.73;;
18021;SDS011;9136;48.822;7.966;2023-04-15T20:23:28;15.97;;;15.27;;
18021;SDS011;9136;48.822;7.966;2023-04-15T20:26:17;17.40;;;16.60;;
18021;SDS011;9136;48.822;7.966;2023-04-15T20:29:06;15.40;;;14.70;;
18021;SDS011;9136;48.822;7.966;2023-04-15T20:31:54;16.97;;;16.27;;
18021;SDS011;9136;48.822;7.966;2023-04-15T20:34:43;17.67;;;16.87;;
18021;SDS011;9136;48.822;7.966;2023-04-15T20:37:31;17.87;;;16.87;;
18021;SDS011;9136;48.822;7.966;2023-04-15T20:40:19;18.90;;;17.40;;
18021;SDS011;9136;48.822;7.966;2023-04-15T20:43:07;15.27;;;14.57;;
18021;SDS011;9136;48.822;7.966;2023-04-15T20:45:54;18.60;;;17.80;;
18021;SDS011;9136;48.822;7.966;2023-04-15T20:48:42;18.20;;;17.30;;
18021;SDS011;9136;48.822;7.966;2023-04-15T20:51:31;16.17;;;15.47;;
18021;SDS011;9136;48.822;7.966;2023-04-15T20:54:22;17.77;;;16.97;;
18021;SDS011;9136;48.822;7.966;2023-04-15T20:57:10;18.07;;;17.23;;
18021;SDS011;9136;48.822;7.966;2023-04-15T20:59:57;17.67;;;16.87;;
18021;SDS011;9136;48.822;7.966;2023-04-15T21:02:45;17.57;;;16.73;;
18021;SDS011;9136;48.822;7.966;2023-04-15T21:05:33;16.37;;;15.67;;
18021;SDS011;9136;48.822;7.966;2023-04-15T21:08:23;17.80;;;16.90;;
18021;SDS011;9136;48.822;7.966;2023-04-15T21:11:14;18.00;;;17.20;;
18021;SDS011;9136;48.822;7.966;2023-04-15T21:14:04;18.43;;;17.53;;
18021;SDS011;9136;48.822;7.966;2023-04-15T21:16:53;17.70;;;16.90;;
18021;SDS011;9136;48.822;7.966;2023-04-15T21:19:41;16.70;;;15.93;;
18021;SDS011;9136;48.822;7.966;2023-04-15T21:22:29;17.50;;;16.70;;
18021;SDS011;9136;48.822;7.966;2023-04-15T21:25:19;17.67;;;16.87;;
18021;SDS011;9136;48.822;7.966;2023-04-15T21:28:06;18.67;;;17.83;;